sensor_id;sensor_type;location;lat;lon;timestamp;temperature;humidity
42019;DHT22;27703;51.980;5.848;2023-07-08T00:00:53;23.40;71.00
42019;DHT22;27703;51.980;5.848;2023-07-08T00:03:19;23.40;71.10
42019;DHT22;27703;51.980;5.848;2023-07-08T00:05:46;23.30;71.10
42019;DHT22;27703;51.980;5.848;2023-07-08T00:08:17;23.30;71.70
42019;DHT22;27703;51.980;5.848;2023-07-08T00:10:43;23.30;71.80
42019;DHT22;27703;51.980;5.848;2023-07-08T00:13:09;23.30;71.40
42019;DHT22;27703;51.980;5.848;2023-07-08T00:15:36;23.20;71.40
42019;DHT22;27703;51.980;5.848;2023-07-08T00:18:15;23.20;71.60
42019;DHT22;27703;51.980;5.848;2023-07-08T00:20:44;23.20;71.70
42019;DHT22;27703;51.980;5.848;2023-07-08T00:23:10;23.10;71.80
42019;DHT22;27703;51.980;5.848;2023-07-08T00:25:36;23.10;72.10
42019;DHT22;27703;51.980;5.848;2023-07-08T00:28:04;23.00;72.10
42019;DHT22;27703;51.980;5.848;2023-07-08T00:30:31;23.00;72.10
42019;DHT22;27703;51.980;5.848;2023-07-08T00:32:58;23.00;72.30
42019;DHT22;27703;51.980;5.848;2023-07-08T00:35:41;22.90;72.40
42019;DHT22;27703;51.980;5.848;2023-07-08T00:38:15;22.90;72.50
42019;DHT22;27703;51.980;5.848;2023-07-08T00:40:58;22.90;72.60
42019;DHT22;27703;51.980;5.848;2023-07-08T00:43:27;22.90;72.60
42019;DHT22;27703;51.980;5.848;2023-07-08T00:46:03;22.80;72.80
42019;DHT22;27703;51.980;5.848;2023-07-08T00:48:37;22.80;72.90
42019;DHT22;27703;51.980;5.848;2023-07-08T00:51:11;22.70;73.00
42019;DHT22;27703;51.980;5.848;2023-07-08T00:53:37;22.70;73.00
42019;DHT22;27703;51.980;5.848;2023-07-08T00:56:12;22.70;73.20
42019;DHT22;27703;51.980;5.848;2023-07-08T00:58:44;22.60;73.20
42019;DHT22;27703;51.980;5.848;2023-07-08T01:01:11;22.60;73.30
42019;DHT22;27703;51.980;5.848;2023-07-08T01:03:44;22.60;73.40
42019;DHT22;27703;51.980;5.848;2023-07-08T01:06:11;22.60;73.50
42019;DHT22;27703;51.980;5.848;2023-07-08T01:08:38;22.50;73.50
42019;DHT22;27703;51.980;5.848;2023-07-08T01:11:04;22.50;74.30
42019;DHT22;27703;51.980;5.848;2023-07-08T01:13:37;22.50;73.70
42019;DHT22;27703;51.980;5.848;2023-07-08T01:16:06;22.40;73.80
42019;DHT22;27703;51.980;5.848;2023-07-08T01:18:32;22.40;73.90
42019;DHT22;27703;51.980;5.848;2023-07-08T01:21:04;22.30;74.00
42019;DHT22;27703;51.980;5.848;2023-07-08T01:23:32;22.30;74.00
42019;DHT22;27703;51.980;5.848;2023-07-08T01:25:59;22.30;74.20
42019;DHT22;27703;51.980;5.848;2023-07-08T01:28:26;22.30;74.20
42019;DHT22;27703;51.980;5.848;2023-07-08T01:30:52;22.20;74.20
42019;DHT22;27703;51.980;5.848;2023-07-08T01:33:20;22.20;74.30
42019;DHT22;27703;51.980;5.848;2023-07-08T01:35:47;22.20;74.40
42019;DHT22;27703;51.980;5.848;2023-07-08T01:38:16;22.20;74.50
42019;DHT22;27703;51.980;5.848;2023-07-08T01:41:03;22.10;74.60
42019;DHT22;27703;51.980;5.848;2023-07-08T01:43:29;22.10;74.60
42019;DHT22;27703;51.980;5.848;2023-07-08T01:45:55;22.00;74.80
42019;DHT22;27703;51.980;5.848;2023-07-08T01:48:24;22.10;74.80
42019;DHT22;27703;51.980;5.848;2023-07-08T01:50:56;22.00;74.90
42019;DHT22;27703;51.980;5.848;2023-07-08T01:53:35;22.00;75.00
42019;DHT22;27703;51.980;5.848;2023-07-08T01:56:02;22.00;75.20
42019;DHT22;27703;51.980;5.848;2023-07-08T01:58:28;21.90;75.40
42019;DHT22;27703;51.980;5.848;2023-07-08T02:00:54;21.90;75.50
42019;DHT22;27703;51.980;5.848;2023-07-08T02:03:21;21.90;75.70
42019;DHT22;27703;51.980;5.848;2023-07-08T02:05:47;21.80;75.70
42019;DHT22;27703;51.980;5.848;2023-07-08T02:08:13;21.80;75.80
42019;DHT22;27703;51.980;5.848;2023-07-08T02:10:42;21.80;75.90
42019;DHT22;27703;51.980;5.848;2023-07-08T02:13:08;21.80;76.00
42019;DHT22;27703;51.980;5.848;2023-07-08T02:15:34;21.70;76.10
42019;DHT22;27703;51.980;5.848;2023-07-08T02:17:59;21.70;76.20
42019;DHT22;27703;51.980;5.848;2023-07-08T02:20:25;21.70;76.20
42019;DHT22;27703;51.980;5.848;2023-07-08T02:22:50;21.70;76.40
42019;DHT22;27703;51.980;5.848;2023-07-08T02:25:16;21.70;76.50
42019;DHT22;27703;51.980;5.848;2023-07-08T02:27:42;21.60;76.60
42019;DHT22;27703;51.980;5.848;2023-07-08T02:30:08;21.60;76.70
42019;DHT22;27703;51.980;5.848;2023-07-08T02:32:35;21.60;76.70
42019;DHT22;27703;51.980;5.848;2023-07-08T02:35:05;21.60;77.00
42019;DHT22;27703;51.980;5.848;2023-07-08T02:37:31;21.60;77.10
42019;DHT22;27703;51.980;5.848;2023-07-08T02:39:57;21.50;77.10
42019;DHT22;27703;51.980;5.848;2023-07-08T02:42:23;21.50;77.20
42019;DHT22;27703;51.980;5.848;2023-07-08T02:44:49;21.50;77.30
42019;DHT22;27703;51.980;5.848;2023-07-08T02:47:14;21.40;77.50
42019;DHT22;27703;51.980;5.848;2023-07-08T02:49:40;21.40;77.70
42019;DHT22;27703;51.980;5.848;2023-07-08T02:52:05;21.40;77.70
42019;DHT22;27703;51.980;5.848;2023-07-08T02:54:31;21.40;77.80
42019;DHT22;27703;51.980;5.848;2023-07-08T02:56:57;21.40;77.90
42019;DHT22;27703;51.980;5.848;2023-07-08T02:59:22;21.30;78.00
42019;DHT22;27703;51.980;5.848;2023-07-08T03:01:48;21.40;78.20
42019;DHT22;27703;51.980;5.848;2023-07-08T03:04:15;21.30;78.40
42019;DHT22;27703;51.980;5.848;2023-07-08T03:06:42;21.20;78.40
42019;DHT22;27703;51.980;5.848;2023-07-08T03:09:09;21.20;78.50
42019;DHT22;27703;51.980;5.848;2023-07-08T03:11:35;21.20;78.60
42019;DHT22;27703;51.980;5.848;2023-07-08T03:14:01;21.10;78.70
42019;DHT22;27703;51.980;5.848;2023-07-08T03:16:27;21.10;78.80
42019;DHT22;27703;51.980;5.848;2023-07-08T03:18:53;21.10;79.00
42019;DHT22;27703;51.980;5.848;2023-07-08T03:21:19;21.00;79.10
42019;DHT22;27703;51.980;5.848;2023-07-08T03:23:44;21.00;79.20
42019;DHT22;27703;51.980;5.848;2023-07-08T03:26:31;21.00;79.40
42019;DHT22;27703;51.980;5.848;2023-07-08T03:28:59;20.90;79.50
42019;DHT22;27703;51.980;5.848;2023-07-08T03:31:25;20.90;79.60
42019;DHT22;27703;51.980;5.848;2023-07-08T03:33:50;20.90;79.60
42019;DHT22;27703;51.980;5.848;2023-07-08T03:36:17;20.90;80.30
42019;DHT22;27703;51.980;5.848;2023-07-08T03:38:51;20.90;79.80
42019;DHT22;27703;51.980;5.848;2023-07-08T03:41:17;20.80;79.90
42019;DHT22;27703;51.980;5.848;2023-07-08T03:43:42;20.80;80.00
42019;DHT22;27703;51.980;5.848;2023-07-08T03:46:11;20.80;80.10
42019;DHT22;27703;51.980;5.848;2023-07-08T03:48:37;20.80;80.10
42019;DHT22;27703;51.980;5.848;2023-07-08T03:51:03;20.80;80.30
42019;DHT22;27703;51.980;5.848;2023-07-08T03:53:29;20.80;80.30
42019;DHT22;27703;51.980;5.848;2023-07-08T03:55:54;20.80;80.40
42019;DHT22;27703;51.980;5.848;2023-07-08T03:58:20;20.80;80.40
42019;DHT22;27703;51.980;5.848;2023-07-08T04:00:45;20.80;80.50
42019;DHT22;27703;51.980;5.848;2023-07-08T04:03:11;20.80;80.60
42019;DHT22;27703;51.980;5.848;2023-07-08T04:05:37;20.70;80.60
42019;DHT22;27703;51.980;5.848;2023-07-08T04:08:02;20.70;80.70
42019;DHT22;27703;51.980;5.848;2023-07-08T04:10:28;20.70;80.70
42019;DHT22;27703;51.980;5.848;2023-07-08T04:12:54;20.70;80.90
42019;DHT22;27703;51.980;5.848;2023-07-08T04:15:19;20.60;80.80
42019;DHT22;27703;51.980;5.848;2023-07-08T04:17:51;20.60;80.90
42019;DHT22;27703;51.980;5.848;2023-07-08T04:20:19;20.70;81.00
42019;DHT22;27703;51.980;5.848;2023-07-08T04:22:45;20.70;81.10
42019;DHT22;27703;51.980;5.848;2023-07-08T04:25:11;20.60;81.20
42019;DHT22;27703;51.980;5.848;2023-07-08T04:27:38;20.60;81.40
42019;DHT22;27703;51.980;5.848;2023-07-08T04:30:04;20.60;81.50
42019;DHT22;27703;51.980;5.848;2023-07-08T04:32:30;20.60;81.50
42019;DHT22;27703;51.980;5.848;2023-07-08T04:34:56;20.60;81.60
42019;DHT22;27703;51.980;5.848;2023-07-08T04:37:21;20.60;81.60
42019;DHT22;27703;51.980;5.848;2023-07-08T04:39:47;20.60;81.70
42019;DHT22;27703;51.980;5.848;2023-07-08T04:42:14;20.60;81.70
42019;DHT22;27703;51.980;5.848;2023-07-08T04:44:41;20.60;81.70
42019;DHT22;27703;51.980;5.848;2023-07-08T04:47:07;20.60;81.80
42019;DHT22;27703;51.980;5.848;2023-07-08T04:49:35;20.60;81.90
42019;DHT22;27703;51.980;5.848;2023-07-08T04:52:01;20.60;82.00
42019;DHT22;27703;51.980;5.848;2023-07-08T04:54:28;20.60;82.10
42019;DHT22;27703;51.980;5.848;2023-07-08T04:56:54;20.60;82.20
42019;DHT22;27703;51.980;5.848;2023-07-08T04:59:22;20.60;82.10
42019;DHT22;27703;51.980;5.848;2023-07-08T05:01:48;20.60;82.20
42019;DHT22;27703;51.980;5.848;2023-07-08T05:04:15;20.60;82.20
42019;DHT22;27703;51.980;5.848;2023-07-08T05:06:42;20.60;82.20
42019;DHT22;27703;51.980;5.848;2023-07-08T05:09:08;20.60;82.20
42019;DHT22;27703;51.980;5.848;2023-07-08T05:11:34;20.60;82.30
42019;DHT22;27703;51.980;5.848;2023-07-08T05:14:00;20.70;82.40
42019;DHT22;27703;51.980;5.848;2023-07-08T05:16:26;20.70;82.50
42019;DHT22;27703;51.980;5.848;2023-07-08T05:18:51;20.70;82.50
42019;DHT22;27703;51.980;5.848;2023-07-08T05:21:19;20.70;82.70
42019;DHT22;27703;51.980;5.848;2023-07-08T05:23:45;20.70;82.80
42019;DHT22;27703;51.980;5.848;2023-07-08T05:26:11;20.60;82.90
42019;DHT22;27703;51.980;5.848;2023-07-08T05:28:37;20.60;82.90
42019;DHT22;27703;51.980;5.848;2023-07-08T05:31:02;20.70;83.00
42019;DHT22;27703;51.980;5.848;2023-07-08T05:33:30;20.70;83.50
42019;DHT22;27703;51.980;5.848;2023-07-08T05:35:56;20.70;83.00
42019;DHT22;27703;51.980;5.848;2023-07-08T05:38:22;20.70;83.20
42019;DHT22;27703;51.980;5.848;2023-07-08T05:40:55;20.70;83.10
42019;DHT22;27703;51.980;5.848;2023-07-08T05:43:20;20.70;83.00
42019;DHT22;27703;51.980;5.848;2023-07-08T05:45:47;20.70;83.00
42019;DHT22;27703;51.980;5.848;2023-07-08T05:48:12;20.80;83.00
42019;DHT22;27703;51.980;5.848;2023-07-08T05:50:39;20.80;83.00
42019;DHT22;27703;51.980;5.848;2023-07-08T05:53:05;20.90;83.10
42019;DHT22;27703;51.980;5.848;2023-07-08T05:55:32;20.90;83.20
42019;DHT22;27703;51.980;5.848;2023-07-08T05:57:57;20.90;83.20
42019;DHT22;27703;51.980;5.848;2023-07-08T06:00:23;20.90;83.30
42019;DHT22;27703;51.980;5.848;2023-07-08T06:02:49;20.90;83.20
42019;DHT22;27703;51.980;5.848;2023-07-08T06:05:14;21.00;83.10
42019;DHT22;27703;51.980;5.848;2023-07-08T06:07:40;21.10;83.00
42019;DHT22;27703;51.980;5.848;2023-07-08T06:10:06;21.20;83.10
42019;DHT22;27703;51.980;5.848;2023-07-08T06:12:32;21.20;83.00
42019;DHT22;27703;51.980;5.848;2023-07-08T06:14:58;21.20;83.10
42019;DHT22;27703;51.980;5.848;2023-07-08T06:17:23;21.20;83.10
42019;DHT22;27703;51.980;5.848;2023-07-08T06:19:49;21.30;83.10
42019;DHT22;27703;51.980;5.848;2023-07-08T06:22:15;21.30;83.10
42019;DHT22;27703;51.980;5.848;2023-07-08T06:24:40;21.40;83.10
42019;DHT22;27703;51.980;5.848;2023-07-08T06:27:06;21.40;83.00
42019;DHT22;27703;51.980;5.848;2023-07-08T06:29:33;21.50;82.90
42019;DHT22;27703;51.980;5.848;2023-07-08T06:31:59;21.60;82.80
42019;DHT22;27703;51.980;5.848;2023-07-08T06:34:24;21.60;82.80
42019;DHT22;27703;51.980;5.848;2023-07-08T06:36:50;21.70;82.80
42019;DHT22;27703;51.980;5.848;2023-07-08T06:39:17;21.70;82.80
42019;DHT22;27703;51.980;5.848;2023-07-08T06:41:43;21.80;83.00
42019;DHT22;27703;51.980;5.848;2023-07-08T06:44:08;21.80;82.90
42019;DHT22;27703;51.980;5.848;2023-07-08T06:46:34;21.90;82.90
42019;DHT22;27703;51.980;5.848;2023-07-08T06:49:00;21.90;82.80
42019;DHT22;27703;51.980;5.848;2023-07-08T06:51:26;22.00;82.70
42019;DHT22;27703;51.980;5.848;2023-07-08T06:53:51;22.10;82.60
42019;DHT22;27703;51.980;5.848;2023-07-08T06:56:17;22.20;82.60
42019;DHT22;27703;51.980;5.848;2023-07-08T06:58:43;22.20;82.60
42019;DHT22;27703;51.980;5.848;2023-07-08T07:01:08;22.30;82.70
42019;DHT22;27703;51.980;5.848;2023-07-08T07:03:34;22.40;82.70
42019;DHT22;27703;51.980;5.848;2023-07-08T07:06:00;22.40;82.70
42019;DHT22;27703;51.980;5.848;2023-07-08T07:08:25;22.50;82.70
42019;DHT22;27703;51.980;5.848;2023-07-08T07:10:51;22.60;82.60
42019;DHT22;27703;51.980;5.848;2023-07-08T07:13:16;22.70;82.60
42019;DHT22;27703;51.980;5.848;2023-07-08T07:15:42;22.80;82.50
42019;DHT22;27703;51.980;5.848;2023-07-08T07:18:08;22.90;82.60
42019;DHT22;27703;51.980;5.848;2023-07-08T07:20:35;22.90;82.60
42019;DHT22;27703;51.980;5.848;2023-07-08T07:23:01;23.00;82.70
42019;DHT22;27703;51.980;5.848;2023-07-08T07:25:27;23.00;82.80
42019;DHT22;27703;51.980;5.848;2023-07-08T07:27:52;23.20;82.80
42019;DHT22;27703;51.980;5.848;2023-07-08T07:30:18;23.20;82.70
42019;DHT22;27703;51.980;5.848;2023-07-08T07:32:44;23.30;82.70
42019;DHT22;27703;51.980;5.848;2023-07-08T07:35:11;23.50;82.80
42019;DHT22;27703;51.980;5.848;2023-07-08T07:37:41;23.50;82.80
42019;DHT22;27703;51.980;5.848;2023-07-08T07:40:11;23.60;82.60
42019;DHT22;27703;51.980;5.848;2023-07-08T07:42:39;23.70;82.60
42019;DHT22;27703;51.980;5.848;2023-07-08T07:45:05;23.70;82.50
42019;DHT22;27703;51.980;5.848;2023-07-08T07:47:32;23.80;82.30
42019;DHT22;27703;51.980;5.848;2023-07-08T07:49:57;23.90;82.30
42019;DHT22;27703;51.980;5.848;2023-07-08T07:52:24;24.00;82.20
42019;DHT22;27703;51.980;5.848;2023-07-08T07:54:51;24.10;82.10
42019;DHT22;27703;51.980;5.848;2023-07-08T07:57:16;24.20;82.70
42019;DHT22;27703;51.980;5.848;2023-07-08T07:59:42;24.30;82.00
42019;DHT22;27703;51.980;5.848;2023-07-08T08:02:08;24.40;81.80
42019;DHT22;27703;51.980;5.848;2023-07-08T08:04:34;24.50;81.70
42019;DHT22;27703;51.980;5.848;2023-07-08T08:07:00;24.60;81.60
42019;DHT22;27703;51.980;5.848;2023-07-08T08:09:25;24.70;81.80
42019;DHT22;27703;51.980;5.848;2023-07-08T08:11:51;24.70;81.50
42019;DHT22;27703;51.980;5.848;2023-07-08T08:14:17;24.80;81.40
42019;DHT22;27703;51.980;5.848;2023-07-08T08:16:44;25.00;81.40
42019;DHT22;27703;51.980;5.848;2023-07-08T08:19:09;25.00;81.30
42019;DHT22;27703;51.980;5.848;2023-07-08T08:21:35;25.10;81.20
42019;DHT22;27703;51.980;5.848;2023-07-08T08:24:00;25.20;81.20
42019;DHT22;27703;51.980;5.848;2023-07-08T08:26:26;25.30;81.10
42019;DHT22;27703;51.980;5.848;2023-07-08T08:28:52;25.40;80.90
42019;DHT22;27703;51.980;5.848;2023-07-08T08:31:18;25.50;80.90
42019;DHT22;27703;51.980;5.848;2023-07-08T08:33:44;25.60;80.70
42019;DHT22;27703;51.980;5.848;2023-07-08T08:36:09;25.70;80.80
42019;DHT22;27703;51.980;5.848;2023-07-08T08:38:35;25.80;80.60
42019;DHT22;27703;51.980;5.848;2023-07-08T08:41:14;25.90;80.50
42019;DHT22;27703;51.980;5.848;2023-07-08T08:43:41;26.10;80.50
42019;DHT22;27703;51.980;5.848;2023-07-08T08:51:43;26.30;80.30
42019;DHT22;27703;51.980;5.848;2023-07-08T08:54:09;26.40;80.50
42019;DHT22;27703;51.980;5.848;2023-07-08T08:56:51;26.50;80.40
42019;DHT22;27703;51.980;5.848;2023-07-08T08:59:45;26.50;80.20
42019;DHT22;27703;51.980;5.848;2023-07-08T09:05:08;26.80;80.30
42019;DHT22;27703;51.980;5.848;2023-07-08T09:10:49;27.00;80.20
42019;DHT22;27703;51.980;5.848;2023-07-08T09:13:36;27.10;79.80
42019;DHT22;27703;51.980;5.848;2023-07-08T09:19:12;27.30;79.70
42019;DHT22;27703;51.980;5.848;2023-07-08T09:22:05;27.30;79.50
42019;DHT22;27703;51.980;5.848;2023-07-08T09:24:45;27.50;79.40
42019;DHT22;27703;51.980;5.848;2023-07-08T09:27:13;27.60;79.40
42019;DHT22;27703;51.980;5.848;2023-07-08T09:29:39;27.70;79.00
42019;DHT22;27703;51.980;5.848;2023-07-08T09:32:22;27.70;79.00
42019;DHT22;27703;51.980;5.848;2023-07-08T09:35:02;27.80;78.80
42019;DHT22;27703;51.980;5.848;2023-07-08T09:37:30;27.90;78.60
42019;DHT22;27703;51.980;5.848;2023-07-08T09:39:58;28.00;78.40
42019;DHT22;27703;51.980;5.848;2023-07-08T09:42:32;28.10;78.10
42019;DHT22;27703;51.980;5.848;2023-07-08T09:45:01;28.20;78.30
42019;DHT22;27703;51.980;5.848;2023-07-08T09:47:33;28.30;78.00
42019;DHT22;27703;51.980;5.848;2023-07-08T09:50:00;28.40;78.00
42019;DHT22;27703;51.980;5.848;2023-07-08T09:52:29;28.50;78.00
42019;DHT22;27703;51.980;5.848;2023-07-08T09:54:55;28.60;77.60
42019;DHT22;27703;51.980;5.848;2023-07-08T09:57:31;28.70;77.30
42019;DHT22;27703;51.980;5.848;2023-07-08T10:00:33;28.80;77.10
42019;DHT22;27703;51.980;5.848;2023-07-08T10:03:16;28.90;76.70
42019;DHT22;27703;51.980;5.848;2023-07-08T10:05:46;29.00;76.70
42019;DHT22;27703;51.980;5.848;2023-07-08T10:08:18;29.20;76.60
42019;DHT22;27703;51.980;5.848;2023-07-08T10:10:47;29.30;76.10
42019;DHT22;27703;51.980;5.848;2023-07-08T10:13:17;29.30;76.20
42019;DHT22;27703;51.980;5.848;2023-07-08T10:15:55;29.50;76.30
42019;DHT22;27703;51.980;5.848;2023-07-08T10:18:29;29.60;76.20
42019;DHT22;27703;51.980;5.848;2023-07-08T10:21:17;29.70;75.90
42019;DHT22;27703;51.980;5.848;2023-07-08T10:24:20;29.80;75.60
42019;DHT22;27703;51.980;5.848;2023-07-08T10:26:59;29.80;75.50
42019;DHT22;27703;51.980;5.848;2023-07-08T10:32:39;30.10;74.80
42019;DHT22;27703;51.980;5.848;2023-07-08T10:35:33;30.10;74.40
42019;DHT22;27703;51.980;5.848;2023-07-08T10:40:54;30.20;74.20
42019;DHT22;27703;51.980;5.848;2023-07-08T10:46:37;30.40;73.70
42019;DHT22;27703;51.980;5.848;2023-07-08T10:56:53;30.80;72.90
42019;DHT22;27703;51.980;5.848;2023-07-08T11:04:55;31.10;71.70
42019;DHT22;27703;51.980;5.848;2023-07-08T11:07:43;31.20;71.60
42019;DHT22;27703;51.980;5.848;2023-07-08T11:10:22;31.40;71.70
42019;DHT22;27703;51.980;5.848;2023-07-08T11:13:05;31.50;71.70
42019;DHT22;27703;51.980;5.848;2023-07-08T11:18:15;31.60;72.40
42019;DHT22;27703;51.980;5.848;2023-07-08T11:20:56;31.60;71.70
42019;DHT22;27703;51.980;5.848;2023-07-08T11:23:36;31.80;71.60
42019;DHT22;27703;51.980;5.848;2023-07-08T11:26:13;31.80;71.40
42019;DHT22;27703;51.980;5.848;2023-07-08T11:28:40;31.90;71.30
42019;DHT22;27703;51.980;5.848;2023-07-08T11:31:07;31.90;71.30
42019;DHT22;27703;51.980;5.848;2023-07-08T11:33:33;32.00;71.30
42019;DHT22;27703;51.980;5.848;2023-07-08T11:36:01;32.10;71.00
42019;DHT22;27703;51.980;5.848;2023-07-08T11:38:28;32.10;71.00
42019;DHT22;27703;51.980;5.848;2023-07-08T11:41:00;32.10;70.90
42019;DHT22;27703;51.980;5.848;2023-07-08T11:43:34;32.20;70.80
42019;DHT22;27703;51.980;5.848;2023-07-08T11:46:05;32.30;70.60
42019;DHT22;27703;51.980;5.848;2023-07-08T11:48:38;32.40;70.80
42019;DHT22;27703;51.980;5.848;2023-07-08T11:51:05;32.30;70.90
42019;DHT22;27703;51.980;5.848;2023-07-08T11:53:36;32.40;71.00
42019;DHT22;27703;51.980;5.848;2023-07-08T11:56:18;32.60;70.70
42019;DHT22;27703;51.980;5.848;2023-07-08T11:59:12;32.70;70.20
42019;DHT22;27703;51.980;5.848;2023-07-08T12:04:24;32.80;70.10
42019;DHT22;27703;51.980;5.848;2023-07-08T12:07:28;32.90;69.50
42019;DHT22;27703;51.980;5.848;2023-07-08T12:09:48;32.90;69.50
42019;DHT22;27703;51.980;5.848;2023-07-08T12:12:27;33.00;69.70
42019;DHT22;27703;51.980;5.848;2023-07-08T12:15:10;33.00;69.30
42019;DHT22;27703;51.980;5.848;2023-07-08T12:17:38;33.10;68.90
42019;DHT22;27703;51.980;5.848;2023-07-08T12:20:10;33.10;69.00
42019;DHT22;27703;51.980;5.848;2023-07-08T12:22:39;33.20;69.20
42019;DHT22;27703;51.980;5.848;2023-07-08T12:25:18;33.20;68.80
42019;DHT22;27703;51.980;5.848;2023-07-08T12:27:46;33.20;68.80
42019;DHT22;27703;51.980;5.848;2023-07-08T12:30:12;33.30;68.60
42019;DHT22;27703;51.980;5.848;2023-07-08T12:32:39;33.30;68.40
42019;DHT22;27703;51.980;5.848;2023-07-08T12:37:58;33.50;68.30
42019;DHT22;27703;51.980;5.848;2023-07-08T12:40:26;33.50;68.10
42019;DHT22;27703;51.980;5.848;2023-07-08T12:42:53;33.60;68.00
42019;DHT22;27703;51.980;5.848;2023-07-08T12:45:21;33.70;67.80
42019;DHT22;27703;51.980;5.848;2023-07-08T12:47:47;33.80;67.50
42019;DHT22;27703;51.980;5.848;2023-07-08T12:50:14;33.80;67.70
42019;DHT22;27703;51.980;5.848;2023-07-08T12:52:43;33.90;67.20
42019;DHT22;27703;51.980;5.848;2023-07-08T12:55:09;33.90;66.90
42019;DHT22;27703;51.980;5.848;2023-07-08T12:57:36;33.90;66.90
42019;DHT22;27703;51.980;5.848;2023-07-08T13:00:03;33.90;66.90
42019;DHT22;27703;51.980;5.848;2023-07-08T13:02:30;34.00;66.50
42019;DHT22;27703;51.980;5.848;2023-07-08T13:05:00;34.00;66.70
42019;DHT22;27703;51.980;5.848;2023-07-08T13:10:01;34.20;65.60
42019;DHT22;27703;51.980;5.848;2023-07-08T13:12:27;34.20;64.90
42019;DHT22;27703;51.980;5.848;2023-07-08T13:14:55;34.20;64.70
42019;DHT22;27703;51.980;5.848;2023-07-08T13:17:23;34.20;63.30
42019;DHT22;27703;51.980;5.848;2023-07-08T13:19:49;34.20;63.10
42019;DHT22;27703;51.980;5.848;2023-07-08T13:22:17;34.30;63.40
42019;DHT22;27703;51.980;5.848;2023-07-08T13:24:44;34.40;62.80
42019;DHT22;27703;51.980;5.848;2023-07-08T13:27:22;34.50;62.80
42019;DHT22;27703;51.980;5.848;2023-07-08T13:29:48;34.50;62.30
42019;DHT22;27703;51.980;5.848;2023-07-08T13:32:13;34.50;62.00
42019;DHT22;27703;51.980;5.848;2023-07-08T13:34:40;34.60;62.10
42019;DHT22;27703;51.980;5.848;2023-07-08T13:37:11;34.60;62.10
42019;DHT22;27703;51.980;5.848;2023-07-08T13:39:38;34.70;62.00
42019;DHT22;27703;51.980;5.848;2023-07-08T13:42:06;34.80;61.80
42019;DHT22;27703;51.980;5.848;2023-07-08T13:44:32;34.80;61.80
42019;DHT22;27703;51.980;5.848;2023-07-08T13:47:00;34.90;61.00
42019;DHT22;27703;51.980;5.848;2023-07-08T13:49:38;35.00;60.90
42019;DHT22;27703;51.980;5.848;2023-07-08T13:52:15;35.00;60.80
42019;DHT22;27703;51.980;5.848;2023-07-08T13:54:48;35.10;60.60
42019;DHT22;27703;51.980;5.848;2023-07-08T13:57:20;35.20;60.10
42019;DHT22;27703;51.980;5.848;2023-07-08T13:59:46;35.20;59.60
42019;DHT22;27703;51.980;5.848;2023-07-08T14:02:24;35.20;59.20
42019;DHT22;27703;51.980;5.848;2023-07-08T14:04:51;35.20;59.10
42019;DHT22;27703;51.980;5.848;2023-07-08T14:07:26;35.20;59.40
42019;DHT22;27703;51.980;5.848;2023-07-08T14:09:52;35.20;58.80
42019;DHT22;27703;51.980;5.848;2023-07-08T14:12:20;35.20;58.80
42019;DHT22;27703;51.980;5.848;2023-07-08T14:14:45;35.20;58.70
42019;DHT22;27703;51.980;5.848;2023-07-08T14:17:13;35.20;58.00
42019;DHT22;27703;51.980;5.848;2023-07-08T14:19:40;35.30;58.00
42019;DHT22;27703;51.980;5.848;2023-07-08T14:22:29;35.30;57.70
42019;DHT22;27703;51.980;5.848;2023-07-08T14:24:58;35.30;57.60
42019;DHT22;27703;51.980;5.848;2023-07-08T14:27:25;35.30;57.50
42019;DHT22;27703;51.980;5.848;2023-07-08T14:29:51;35.30;57.20
42019;DHT22;27703;51.980;5.848;2023-07-08T14:32:23;35.30;56.90
42019;DHT22;27703;51.980;5.848;2023-07-08T14:34:55;35.50;57.10
42019;DHT22;27703;51.980;5.848;2023-07-08T14:37:22;35.50;57.10
42019;DHT22;27703;51.980;5.848;2023-07-08T14:39:49;35.50;56.80
42019;DHT22;27703;51.980;5.848;2023-07-08T14:42:16;35.50;57.20
42019;DHT22;27703;51.980;5.848;2023-07-08T14:44:44;35.60;57.20
42019;DHT22;27703;51.980;5.848;2023-07-08T14:47:12;35.60;57.20
42019;DHT22;27703;51.980;5.848;2023-07-08T14:49:38;35.70;57.60
42019;DHT22;27703;51.980;5.848;2023-07-08T14:52:04;35.70;57.70
42019;DHT22;27703;51.980;5.848;2023-07-08T14:54:29;35.80;57.60
42019;DHT22;27703;51.980;5.848;2023-07-08T14:56:56;35.80;57.40
42019;DHT22;27703;51.980;5.848;2023-07-08T14:59:25;35.80;57.70
42019;DHT22;27703;51.980;5.848;2023-07-08T15:01:52;35.80;57.50
42019;DHT22;27703;51.980;5.848;2023-07-08T15:04:19;35.80;57.30
42019;DHT22;27703;51.980;5.848;2023-07-08T15:06:45;35.80;57.00
42019;DHT22;27703;51.980;5.848;2023-07-08T15:09:12;35.70;57.00
42019;DHT22;27703;51.980;5.848;2023-07-08T15:11:40;35.50;56.60
42019;DHT22;27703;51.980;5.848;2023-07-08T15:16:39;35.10;57.20
42019;DHT22;27703;51.980;5.848;2023-07-08T15:19:10;35.00;56.80
42019;DHT22;27703;51.980;5.848;2023-07-08T15:21:37;35.00;56.90
42019;DHT22;27703;51.980;5.848;2023-07-08T15:24:02;35.00;57.00
42019;DHT22;27703;51.980;5.848;2023-07-08T15:26:28;35.10;57.10
42019;DHT22;27703;51.980;5.848;2023-07-08T15:28:54;35.20;57.20
42019;DHT22;27703;51.980;5.848;2023-07-08T15:31:21;35.20;57.30
42019;DHT22;27703;51.980;5.848;2023-07-08T15:33:50;35.20;57.20
42019;DHT22;27703;51.980;5.848;2023-07-08T15:36:16;35.20;57.10
42019;DHT22;27703;51.980;5.848;2023-07-08T15:38:42;35.20;57.30
42019;DHT22;27703;51.980;5.848;2023-07-08T15:41:23;35.20;57.40
42019;DHT22;27703;51.980;5.848;2023-07-08T15:43:53;35.30;57.50
42019;DHT22;27703;51.980;5.848;2023-07-08T15:46:18;35.30;57.20
42019;DHT22;27703;51.980;5.848;2023-07-08T15:48:44;35.20;57.00
42019;DHT22;27703;51.980;5.848;2023-07-08T15:51:16;35.10;57.20
42019;DHT22;27703;51.980;5.848;2023-07-08T15:53:41;34.90;57.50
42019;DHT22;27703;51.980;5.848;2023-07-08T15:56:16;34.80;57.80
42019;DHT22;27703;51.980;5.848;2023-07-08T15:58:44;34.60;57.80
42019;DHT22;27703;51.980;5.848;2023-07-08T16:01:21;34.60;58.20
42019;DHT22;27703;51.980;5.848;2023-07-08T16:03:48;34.80;58.30
42019;DHT22;27703;51.980;5.848;2023-07-08T16:06:14;34.90;58.00
42019;DHT22;27703;51.980;5.848;2023-07-08T16:08:40;34.90;57.60
42019;DHT22;27703;51.980;5.848;2023-07-08T16:11:13;34.70;57.40
42019;DHT22;27703;51.980;5.848;2023-07-08T16:13:40;34.50;57.40
42019;DHT22;27703;51.980;5.848;2023-07-08T16:16:06;34.30;57.60
42019;DHT22;27703;51.980;5.848;2023-07-08T16:18:32;34.10;57.90
42019;DHT22;27703;51.980;5.848;2023-07-08T16:20:57;34.00;58.30
42019;DHT22;27703;51.980;5.848;2023-07-08T16:23:23;33.90;58.70
42019;DHT22;27703;51.980;5.848;2023-07-08T16:25:51;33.80;58.80
42019;DHT22;27703;51.980;5.848;2023-07-08T16:28:27;33.90;58.80
42019;DHT22;27703;51.980;5.848;2023-07-08T16:30:53;34.10;58.70